Time;durP1;ratioP1;P1;durP2;ratioP2;P2;SDS_P1;SDS_P2;PMS_P1;PMS_P2;Temp;Humidity;BMP_temperature;BMP_pressure;BME280_temperature;BME280_humidity;BME280_pressure;Samples;Min_cycle;Max_cycle;Signal;HPM_P1;HPM_P2
2022/06/13 00:01:12;;;;;;;1.40;1.30;;;18.10;75.80;;;;;;5011571;28;20034;-79
2022/06/13 00:03:38;;;;;;;1.13;0.98;;;18.10;76.30;;;;;;4992252;28;20038;-79
2022/06/13 00:06:04;;;;;;;1.95;1.30;;;18.10;76.30;;;;;;4995818;28;20030;-79
2022/06/13 00:08:30;;;;;;;1.35;1.15;;;18.10;76.70;;;;;;5009367;28;20022;-79
2022/06/13 00:10:56;;;;;;;4.05;1.20;;;18.10;77.20;;;;;;5001118;28;20030;-79
2022/06/13 00:13:21;;;;;;;2.85;1.10;;;18.10;76.20;;;;;;5018991;28;20031;-79
2022/06/13 00:15:47;;;;;;;2.00;0.98;;;18.10;76.60;;;;;;4984368;28;20195;-79
2022/06/13 00:18:13;;;;;;;1.27;1.17;;;18.10;76.80;;;;;;5001300;28;20060;-80
2022/06/13 00:20:39;;;;;;;1.88;1.20;;;18.10;77.30;;;;;;4995140;28;20033;-79
2022/06/13 00:23:04;;;;;;;1.52;1.10;;;18.10;75.80;;;;;;5031288;28;20048;-79
2022/06/13 00:25:30;;;;;;;2.25;1.10;;;18.10;75.50;;;;;;5013291;28;20034;-79
2022/06/13 00:27:56;;;;;;;1.83;1.40;;;18.10;74.70;;;;;;5031547;28;20098;-79
2022/06/13 00:30:22;;;;;;;2.80;1.35;;;18.10;74.30;;;;;;5014099;28;20120;-79
2022/06/13 00:32:48;;;;;;;6.28;1.85;;;18.10;74.90;;;;;;5032226;28;20033;-80
2022/06/13 00:35:13;;;;;;;1.98;1.00;;;18.10;75.20;;;;;;5030002;28;20030;-80
2022/06/13 00:37:39;;;;;;;1.42;1.15;;;18.10;74.00;;;;;;5024065;28;20041;-80
2022/06/13 00:40:06;;;;;;;2.83;1.30;;;18.10;75.90;;;;;;4994841;28;20133;-80
2022/06/13 00:42:31;;;;;;;3.88;1.13;;;18.10;76.50;;;;;;5014036;28;20041;-80
2022/06/13 00:45:24;;;;;;;1.80;1.23;;;18.10;77.10;;;;;;5015742;28;20096;-79
2022/06/13 00:47:53;;;;;;;1.25;1.08;;;18.10;77.80;;;;;;4992487;28;20042;-80
2022/06/13 00:50:34;;;;;;;2.08;1.30;;;18.00;76.20;;;;;;4978463;28;20033;-80
2022/06/13 00:53:22;;;;;;;2.13;1.23;;;18.00;77.10;;;;;;4995060;28;20071;-80
2022/06/13 00:55:57;;;;;;;3.10;1.27;;;18.00;77.50;;;;;;4995928;28;20029;-81
2022/06/13 00:58:29;;;;;;;2.67;1.70;;;18.00;76.60;;;;;;4988399;28;20042;-81
2022/06/13 01:00:57;;;;;;;2.63;1.30;;;18.00;74.90;;;;;;4997322;28;20038;-80
2022/06/13 01:03:25;;;;;;;3.03;1.30;;;18.00;76.30;;;;;;5008090;28;20165;-80
2022/06/13 01:05:53;;;;;;;4.38;1.15;;;18.00;77.10;;;;;;5010552;28;20064;-81
2022/06/13 01:08:23;;;;;;;4.38;2.17;;;18.00;75.10;;;;;;4994271;28;20026;-81
2022/06/13 01:13:56;;;;;;;1.63;1.10;;;18.00;74.30;;;;;;5017103;28;20042;-81
2022/06/13 01:16:46;;;;;;;1.40;1.00;;;18.00;75.50;;;;;;5010147;28;20067;-80
2022/06/13 01:19:37;;;;;;;4.03;1.30;;;18.00;77.80;;;;;;5007730;28;20973;-81
2022/06/13 01:22:39;;;;;;;3.60;1.30;;;18.00;75.30;;;;;;5022729;28;20049;-79
2022/06/13 01:25:41;;;;;;;2.85;1.15;;;17.90;74.70;;;;;;4992206;28;20389;-80
2022/06/13 01:28:12;;;;;;;1.73;0.93;;;18.00;73.90;;;;;;5003475;28;20040;-80
2022/06/13 01:30:56;;;;;;;3.15;1.20;;;17.90;75.50;;;;;;4997138;28;20025;-80
2022/06/13 01:33:52;;;;;;;1.40;1.30;;;17.90;78.00;;;;;;5007706;28;20031;-80
2022/06/13 01:36:46;;;;;;;2.80;1.10;;;17.80;78.90;;;;;;5003768;28;20062;-80
2022/06/13 01:39:20;;;;;;;1.77;0.90;;;17.80;77.20;;;;;;5009711;28;20050;-81
2022/06/13 01:42:09;;;;;;;2.35;1.83;;;17.70;76.40;;;;;;5010152;28;20036;-80
2022/06/13 01:45:04;;;;;;;2.45;1.27;;;17.70;77.40;;;;;;4996827;28;20125;-80
2022/06/13 01:47:47;;;;;;;2.92;1.20;;;17.70;78.50;;;;;;5007312;28;20037;-80
2022/06/13 01:50:22;;;;;;;3.17;1.50;;;17.60;77.90;;;;;;4991602;28;20034;-80
2022/06/13 01:53:02;;;;;;;3.55;1.17;;;17.70;78.40;;;;;;4993079;28;20076;-79
2022/06/13 01:55:50;;;;;;;4.18;1.35;;;17.60;75.90;;;;;;5006671;28;20116;-80
2022/06/13 01:58:19;;;;;;;4.20;1.13;;;17.60;76.00;;;;;;5014062;28;20088;-80
2022/06/13 02:01:17;;;;;;;2.38;1.02;;;17.60;75.70;;;;;;5005386;28;20083;-80
2022/06/13 02:03:50;;;;;;;3.22;1.38;;;17.50;76.20;;;;;;4986239;28;20704;-80
2022/06/13 02:06:29;;;;;;;1.70;1.20;;;17.50;75.50;;;;;;4978791;28;20065;-81
2022/06/13 02:09:09;;;;;;;6.22;1.67;;;17.50;75.40;;;;;;5005108;28;20026;-80
2022/06/13 02:11:44;;;;;;;3.63;0.85;;;17.50;76.50;;;;;;5019909;28;20125;-80
2022/06/13 02:14:45;;;;;;;3.72;0.93;;;17.50;77.00;;;;;;4990047;28;20066;-81
2022/06/13 02:17:18;;;;;;;2.15;1.00;;;17.50;77.40;;;;;;5004737;28;20058;-80
2022/06/13 02:20:06;;;;;;;1.48;1.30;;;17.50;78.10;;;;;;5010579;28;20105;-81
2022/06/13 02:22:48;;;;;;;2.53;1.05;;;17.50;78.00;;;;;;5010768;28;20045;-80
2022/06/13 02:25:26;;;;;;;3.35;1.25;;;17.50;78.40;;;;;;4994952;28;20022;-80
2022/06/13 02:28:05;;;;;;;1.75;1.00;;;17.40;78.70;;;;;;5015072;28;20060;-80
2022/06/13 02:30:37;;;;;;;3.55;1.10;;;17.40;78.90;;;;;;5010729;28;20039;-80
2022/06/13 02:33:09;;;;;;;2.67;1.10;;;17.40;78.40;;;;;;5012324;28;20025;-80
2022/06/13 02:35:39;;;;;;;3.38;1.10;;;17.40;78.30;;;;;;5008166;28;20144;-80
2022/06/13 02:38:24;;;;;;;2.53;1.00;;;17.40;77.70;;;;;;5009468;28;20108;-81
2022/06/13 02:41:13;;;;;;;1.60;1.10;;;17.40;76.10;;;;;;5011171;28;20065;-80
2022/06/13 02:43:46;;;;;;;3.08;1.65;;;17.30;75.50;;;;;;4994001;28;20034;-80
2022/06/13 02:46:17;;;;;;;5.03;1.08;;;17.30;76.80;;;;;;5000906;28;20034;-80
2022/06/13 02:48:51;;;;;;;2.70;1.10;;;17.30;76.60;;;;;;4991825;28;20513;-80
2022/06/13 02:51:42;;;;;;;2.72;1.35;;;17.30;75.10;;;;;;5014228;28;20034;-79
2022/06/13 02:54:18;;;;;;;2.55;1.20;;;17.20;75.50;;;;;;5009126;28;20030;-80
2022/06/13 02:57:23;;;;;;;2.78;1.20;;;17.20;76.10;;;;;;5006922;28;20034;-80
2022/06/13 02:59:32;;;;;;;4.10;1.45;;;17.10;75.30;;;;;;5008263;28;20038;-81
2022/06/13 03:02:00;;;;;;;2.20;1.10;;;17.20;75.70;;;;;;5009474;28;20044;-80
2022/06/13 03:04:41;;;;;;;2.00;1.17;;;17.10;77.10;;;;;;4993758;28;20092;-80
2022/06/13 03:07:13;;;;;;;2.90;0.90;;;17.10;75.80;;;;;;5006590;28;20033;-80
2022/06/13 03:09:49;;;;;;;3.20;0.90;;;17.10;76.40;;;;;;5012154;28;20034;-79
2022/06/13 03:12:39;;;;;;;1.15;0.95;;;17.00;76.20;;;;;;5022828;28;20022;-79
2022/06/13 03:15:17;;;;;;;3.33;0.93;;;17.00;76.70;;;;;;4991220;28;20046;-80
2022/06/13 03:17:45;;;;;;;2.55;1.10;;;16.90;74.30;;;;;;5006218;28;20046;-79
2022/06/13 03:20:40;;;;;;;1.98;0.90;;;16.90;75.10;;;;;;4997065;28;20038;-80
2022/06/13 03:23:12;;;;;;;3.13;1.20;;;16.80;76.70;;;;;;5004102;28;20121;-79
2022/06/13 03:25:49;;;;;;;2.10;1.13;;;16.70;78.00;;;;;;5011494;28;20037;-80
2022/06/13 03:28:26;;;;;;;1.27;1.00;;;16.70;77.60;;;;;;4996440;28;20432;-80
2022/06/13 03:31:10;;;;;;;1.15;0.98;;;16.60;78.10;;;;;;5002389;28;20097;-80
2022/06/13 03:33:41;;;;;;;1.40;1.00;;;16.60;77.70;;;;;;5009707;28;20452;-80
2022/06/13 03:36:17;;;;;;;3.10;1.05;;;16.50;78.70;;;;;;5014960;28;20045;-80
2022/06/13 03:38:46;;;;;;;;;;;16.50;79.10;;;;;;5014981;28;20469;-81
2022/06/13 03:41:17;;;;;;;1.40;1.30;;;16.40;79.10;;;;;;5029365;28;20024;-80
2022/06/13 03:43:52;;;;;;;1.63;1.00;;;16.40;79.60;;;;;;4993285;28;20039;-80
2022/06/13 03:46:52;;;;;;;2.20;0.95;;;16.30;79.30;;;;;;5019464;28;20029;-80
2022/06/13 03:49:31;;;;;;;2.00;1.20;;;16.30;79.90;;;;;;4996832;28;20034;-80
2022/06/13 03:51:59;;;;;;;1.50;0.90;;;16.30;80.20;;;;;;5022040;28;20033;-80
2022/06/13 03:55:01;;;;;;;2.67;1.27;;;16.20;80.70;;;;;;5012997;28;20034;-80
2022/06/13 03:57:34;;;;;;;1.67;1.15;;;16.20;81.10;;;;;;5012963;28;20034;-79
2022/06/13 04:00:03;;;;;;;2.63;1.25;;;16.20;81.30;;;;;;4997277;28;20404;-80
2022/06/13 04:02:33;;;;;;;2.00;1.30;;;16.10;82.00;;;;;;5031501;28;20029;-80
2022/06/13 04:04:59;;;;;;;0.90;0.77;;;16.10;82.70;;;;;;5015587;28;20127;-80
2022/06/13 04:07:29;;;;;;;3.63;1.10;;;16.10;83.50;;;;;;4974162;28;20170;-80
2022/06/13 04:10:00;;;;;;;2.25;0.98;;;16.10;83.00;;;;;;5016964;28;20045;-81
2022/06/13 04:12:48;;;;;;;3.03;1.27;;;16.20;81.00;;;;;;5019103;28;20035;-80
2022/06/13 04:15:29;;;;;;;2.35;1.10;;;16.20;80.00;;;;;;5021335;28;20092;-82
2022/06/13 04:18:01;;;;;;;2.42;1.42;;;16.20;81.30;;;;;;5018682;28;20083;-81
2022/06/13 04:20:43;;;;;;;2.55;1.08;;;16.30;81.90;;;;;;5025052;28;20030;-81
2022/06/13 04:23:21;;;;;;;3.33;1.30;;;16.30;83.80;;;;;;5017404;28;20045;-81
2022/06/13 04:26:07;;;;;;;4.45;1.20;;;16.30;82.00;;;;;;5019761;28;20089;-82
2022/06/13 04:28:55;;;;;;;1.58;1.00;;;16.30;81.80;;;;;;5018026;28;20035;-81
2022/06/13 04:31:24;;;;;;;1.88;1.15;;;16.30;82.20;;;;;;5027217;28;20043;-81
2022/06/13 04:33:57;;;;;;;1.05;0.75;;;16.30;83.80;;;;;;5019644;28;20058;-81
2022/06/13 04:36:24;;;;;;;2.33;1.17;;;16.30;84.00;;;;;;5029734;28;20042;-81
2022/06/13 04:38:54;;;;;;;4.35;1.65;;;16.20;82.40;;;;;;5005182;28;20105;-81
2022/06/13 04:41:23;;;;;;;3.30;1.08;;;16.20;81.20;;;;;;5048881;28;20065;-81
2022/06/13 04:43:53;;;;;;;2.40;1.00;;;16.20;81.30;;;;;;5019173;28;20058;-80
2022/06/13 04:46:21;;;;;;;3.58;1.10;;;16.30;82.10;;;;;;5011056;28;20121;-81
2022/06/13 04:48:52;;;;;;;4.18;1.40;;;16.30;83.00;;;;;;5013463;28;20041;-82
2022/06/13 04:51:37;;;;;;;1.20;1.10;;;16.30;82.60;;;;;;5014028;28;20032;-83
2022/06/13 04:54:35;;;;;;;2.63;1.23;;;16.40;81.70;;;;;;4995968;28;20025;-82
2022/06/13 04:57:02;;;;;;;4.03;1.30;;;16.40;81.40;;;;;;5012304;28;20038;-81
2022/06/13 04:59:29;;;;;;;2.63;1.05;;;16.50;81.20;;;;;;4995740;28;20389;-82
2022/06/13 05:01:56;;;;;;;3.08;0.90;;;16.50;82.30;;;;;;5014496;28;20062;-83
2022/06/13 05:04:30;;;;;;;0.77;0.77;;;16.60;82.50;;;;;;4994801;28;20113;-83
2022/06/13 05:07:07;;;;;;;2.05;0.90;;;16.70;81.90;;;;;;5008055;28;20049;-82
2022/06/13 05:09:36;;;;;;;2.75;0.98;;;16.80;82.90;;;;;;5009000;28;20029;-82
2022/06/13 05:12:22;;;;;;;2.47;1.25;;;16.90;82.70;;;;;;4992739;28;20054;-81
2022/06/13 05:15:07;;;;;;;;;;;17.00;82.20;;;;;;5004264;28;20061;-82
2022/06/13 05:17:47;;;;;;;3.63;1.25;;;17.10;83.00;;;;;;5052060;28;20273;-81
2022/06/13 05:20:32;;;;;;;2.33;0.93;;;17.10;81.20;;;;;;5018042;28;20030;-81
2022/06/13 05:23:17;;;;;;;1.13;1.02;;;17.30;82.30;;;;;;4993447;28;20153;-82
2022/06/13 05:25:53;;;;;;;1.73;1.38;;;17.50;81.70;;;;;;5006704;28;20103;-81
2022/06/13 05:28:24;;;;;;;1.77;1.00;;;17.60;80.40;;;;;;4996837;28;20038;-82
2022/06/13 05:30:56;;;;;;;2.20;1.15;;;17.80;81.60;;;;;;5015626;28;20465;-82
2022/06/13 05:33:28;;;;;;;1.92;1.35;;;18.20;78.90;;;;;;5016736;28;20038;-82
2022/06/13 05:35:56;;;;;;;1.15;0.90;;;18.80;76.70;;;;;;5006927;28;20025;-82
2022/06/13 05:38:52;;;;;;;1.77;0.88;;;19.30;73.60;;;;;;5015024;28;20037;-81
2022/06/13 05:41:18;;;;;;;;;;;20.00;73.30;;;;;;5021164;28;20037;-82
2022/06/13 05:43:43;;;;;;;;;;;20.40;73.10;;;;;;5031485;28;19908;-82
2022/06/13 05:46:17;;;;;;;1.20;0.77;;;20.90;69.00;;;;;;5004718;28;20008;-82
2022/06/13 05:48:44;;;;;;;1.02;0.73;;;21.40;67.00;;;;;;4993556;28;20045;-81
2022/06/13 05:51:09;;;;;;;1.63;0.90;;;21.80;64.40;;;;;;5016154;28;20037;-82
2022/06/13 05:53:35;;;;;;;1.45;0.80;;;22.20;63.30;;;;;;5029665;28;20029;-81
2022/06/13 05:56:02;;;;;;;1.92;0.90;;;22.50;64.40;;;;;;5023635;28;20463;-82
2022/06/13 05:58:28;;;;;;;5.00;1.42;;;22.80;64.30;;;;;;5009931;28;20069;-82
2022/06/13 06:00:57;;;;;;;1.80;1.08;;;23.20;61.00;;;;;;4999223;28;20025;-82
2022/06/13 06:03:24;;;;;;;2.45;0.90;;;23.50;58.30;;;;;;5007164;28;20544;-82
2022/06/13 06:05:50;;;;;;;3.45;0.98;;;23.70;57.20;;;;;;5011068;28;20053;-81
2022/06/13 06:08:19;;;;;;;2.55;0.90;;;23.80;57.60;;;;;;5012255;28;20030;-80
2022/06/13 06:10:47;;;;;;;2.28;0.90;;;24.00;56.50;;;;;;5000264;28;20022;-80
2022/06/13 06:13:13;;;;;;;1.65;0.90;;;24.00;56.00;;;;;;5031397;28;20017;-80
2022/06/13 06:15:41;;;;;;;2.58;1.10;;;23.90;57.10;;;;;;5018156;28;20026;-80
2022/06/13 06:18:07;;;;;;;1.88;0.90;;;23.60;58.40;;;;;;5010170;28;20034;-81
2022/06/13 06:20:34;;;;;;;3.78;0.90;;;23.60;57.70;;;;;;5014540;28;20030;-80
2022/06/13 06:23:00;;;;;;;3.25;0.93;;;23.60;59.50;;;;;;5024458;28;20030;-80
2022/06/13 06:25:26;;;;;;;3.13;0.95;;;23.70;57.50;;;;;;5016078;28;20030;-80
2022/06/13 06:27:52;;;;;;;4.35;0.98;;;24.00;57.10;;;;;;5034355;28;20068;-81
2022/06/13 06:30:18;;;;;;;1.17;0.77;;;24.40;57.20;;;;;;5033831;28;20116;-81
2022/06/13 06:32:44;;;;;;;2.60;0.95;;;24.70;56.20;;;;;;5020905;28;20038;-80
2022/06/13 06:35:10;;;;;;;1.35;0.90;;;25.00;56.60;;;;;;5014418;28;20045;-81
2022/06/13 06:37:45;;;;;;;2.83;0.95;;;25.20;55.70;;;;;;4994521;28;20660;-80
2022/06/13 06:40:13;;;;;;;1.95;1.13;;;25.10;55.80;;;;;;4979422;28;20421;-80
2022/06/13 06:42:38;;;;;;;1.92;1.02;;;24.80;54.40;;;;;;5028873;28;20033;-79
2022/06/13 06:45:05;;;;;;;2.42;0.85;;;24.70;57.20;;;;;;5014315;28;20125;-81
2022/06/13 06:47:31;;;;;;;2.33;0.80;;;24.90;57.40;;;;;;5032340;28;20037;-80
2022/06/13 06:49:57;;;;;;;1.60;0.93;;;25.10;55.60;;;;;;5017259;28;20080;-80
2022/06/13 06:52:23;;;;;;;2.55;0.82;;;25.20;55.70;;;;;;5015422;28;20029;-80
2022/06/13 07:00:19;;;;;;;3.40;1.10;;;26.00;54.80;;;;;;5012268;28;20034;-80
2022/06/13 07:02:45;;;;;;;4.15;1.30;;;26.20;52.90;;;;;;5017048;28;20075;-80
2022/06/13 07:05:12;;;;;;;2.38;0.98;;;26.00;51.90;;;;;;5032991;28;20688;-80
2022/06/13 07:07:37;;;;;;;5.28;1.40;;;25.70;53.50;;;;;;4993893;28;20055;-80
2022/06/13 07:10:04;;;;;;;3.13;1.02;;;25.70;55.00;;;;;;4994921;28;20465;-80
2022/06/13 07:12:30;;;;;;;3.15;0.98;;;25.90;54.00;;;;;;5012716;28;20057;-80
2022/06/13 07:14:56;;;;;;;4.35;0.98;;;26.20;53.80;;;;;;5014360;28;20706;-80
2022/06/13 07:17:23;;;;;;;2.10;1.02;;;26.30;52.90;;;;;;5005092;28;20098;-83
2022/06/13 07:19:49;;;;;;;1.85;0.90;;;26.40;53.20;;;;;;5016784;28;20038;-83
2022/06/13 07:22:18;;;;;;;1.58;1.00;;;26.80;52.90;;;;;;5023676;28;20030;-81
2022/06/13 07:24:44;;;;;;;1.75;1.20;;;26.80;51.90;;;;;;5021130;28;20041;-80
2022/06/13 07:27:10;;;;;;;2.25;0.90;;;26.80;52.60;;;;;;5016413;28;20034;-82
2022/06/13 07:29:37;;;;;;;3.10;1.17;;;26.90;51.40;;;;;;5003497;28;20041;-82
2022/06/13 07:32:11;;;;;;;2.65;1.02;;;27.10;51.70;;;;;;5030800;28;20041;-82
2022/06/13 07:34:39;;;;;;;4.37;1.17;;;27.20;51.60;;;;;;5011780;28;20070;-81
2022/06/13 07:37:07;;;;;;;0.95;0.77;;;27.30;50.40;;;;;;5030977;28;20041;-82
2022/06/13 07:39:32;;;;;;;1.60;0.90;;;27.50;51.00;;;;;;5011350;28;20033;-82
2022/06/13 07:41:59;;;;;;;5.43;1.27;;;27.70;50.30;;;;;;5018176;28;20063;-82
2022/06/13 07:44:33;;;;;;;1.75;0.80;;;27.80;50.40;;;;;;5020349;28;20401;-81
2022/06/13 07:47:00;;;;;;;3.90;1.17;;;27.90;50.00;;;;;;5020632;28;20029;-82
2022/06/13 07:49:26;;;;;;;3.17;1.38;;;28.10;49.40;;;;;;5003253;28;20105;-81
2022/06/13 07:51:52;;;;;;;2.70;1.20;;;28.10;49.00;;;;;;5025587;28;20056;-81
2022/06/13 07:54:18;;;;;;;3.22;1.40;;;28.00;49.30;;;;;;5045114;28;20026;-81
2022/06/13 07:56:45;;;;;;;3.38;1.05;;;28.00;50.30;;;;;;4998510;28;20534;-82
2022/06/13 07:59:26;;;;;;;3.45;1.23;;;28.00;49.80;;;;;;5010380;28;20525;-83
2022/06/13 08:01:52;;;;;;;5.07;1.13;;;28.10;50.60;;;;;;5022287;28;20112;-83
2022/06/13 08:04:17;;;;;;;3.88;1.02;;;28.20;50.40;;;;;;4999854;28;20508;-82
2022/06/13 08:06:43;;;;;;;2.60;1.20;;;28.10;48.80;;;;;;5021408;28;20034;-83
2022/06/13 08:09:10;;;;;;;2.58;1.10;;;27.80;51.40;;;;;;5003761;28;20042;-83
2022/06/13 08:11:43;;;;;;;2.58;1.20;;;27.40;50.40;;;;;;5013862;28;20026;-83
2022/06/13 08:14:10;;;;;;;2.78;1.30;;;26.90;50.00;;;;;;4993922;28;20027;-82
2022/06/13 08:16:35;;;;;;;2.25;0.88;;;26.50;53.10;;;;;;4958432;28;1119219;-83
2022/06/13 08:19:03;;;;;;;3.58;0.98;;;26.10;54.40;;;;;;4994290;28;20044;-82
2022/06/13 08:21:31;;;;;;;3.58;1.13;;;25.80;53.60;;;;;;5013325;28;20034;-82
2022/06/13 08:23:56;;;;;;;4.65;1.23;;;25.60;54.30;;;;;;5015193;28;20088;-82
2022/06/13 08:26:22;;;;;;;3.60;1.45;;;25.40;53.80;;;;;;4989315;28;20121;-82
2022/06/13 08:28:48;;;;;;;4.50;1.10;;;25.20;51.70;;;;;;5010655;28;20035;-82
2022/06/13 08:31:17;;;;;;;3.65;1.45;;;25.20;54.00;;;;;;5011425;28;20030;-82
2022/06/13 08:33:43;;;;;;;1.95;1.15;;;25.40;53.90;;;;;;4994770;28;20027;-82
2022/06/13 08:36:11;;;;;;;4.85;0.90;;;25.40;52.10;;;;;;5002090;28;20034;-83
2022/06/13 08:38:37;;;;;;;4.07;1.33;;;25.10;53.80;;;;;;5013344;28;20033;-82
2022/06/13 08:41:14;;;;;;;3.50;1.00;;;24.90;54.50;;;;;;5014698;28;20037;-82
2022/06/13 08:44:18;;;;;;;5.35;2.50;;;24.50;54.80;;;;;;4996037;28;20033;-80
2022/06/13 08:47:02;;;;;;;4.55;1.70;;;24.10;55.70;;;;;;5022041;28;20033;-81
2022/06/13 08:49:42;;;;;;;3.25;1.10;;;23.50;57.50;;;;;;5002358;28;20041;-81
2022/06/13 08:52:30;;;;;;;4.05;1.60;;;23.20;59.10;;;;;;5009555;28;20034;-82
2022/06/13 08:55:14;;;;;;;3.05;1.30;;;23.10;60.40;;;;;;5005785;28;20405;-81
2022/06/13 08:58:14;;;;;;;2.85;1.45;;;23.30;61.90;;;;;;5002038;28;20053;-82
2022/06/13 09:00:47;;;;;;;3.40;1.35;;;23.60;59.10;;;;;;5012925;28;20087;-81
2022/06/13 09:03:19;;;;;;;3.90;1.40;;;24.10;57.00;;;;;;4997700;28;20026;-82
2022/06/13 09:05:56;;;;;;;3.85;1.50;;;24.60;57.30;;;;;;5007177;28;20036;-82
2022/06/13 09:08:51;;;;;;;2.95;0.90;;;25.10;57.00;;;;;;5002552;28;20419;-82
2022/06/13 09:11:38;;;;;;;2.83;0.90;;;25.30;55.80;;;;;;4999476;28;20036;-81
2022/06/13 09:14:27;;;;;;;2.35;1.20;;;25.10;55.30;;;;;;5021067;28;20031;-82
2022/06/13 09:17:08;;;;;;;1.38;1.02;;;24.80;54.50;;;;;;5010611;28;20045;-82
2022/06/13 09:19:42;;;;;;;4.72;1.00;;;24.70;55.50;;;;;;5009959;28;20405;-81
2022/06/13 09:22:21;;;;;;;3.03;1.23;;;24.60;53.10;;;;;;5007406;28;20045;-82
2022/06/13 09:25:02;;;;;;;3.55;1.20;;;24.20;54.30;;;;;;5008614;28;20045;-81
2022/06/13 09:27:43;;;;;;;3.00;1.08;;;23.90;55.40;;;;;;5012491;28;20673;-80
2022/06/13 09:30:14;;;;;;;2.45;0.90;;;23.60;58.10;;;;;;5000271;28;20034;-81
2022/06/13 09:32:47;;;;;;;2.88;1.17;;;23.40;58.30;;;;;;5013507;28;20064;-79
2022/06/13 09:35:56;;;;;;;6.15;1.45;;;23.30;57.90;;;;;;5012681;28;20025;-80
2022/06/13 09:38:25;;;;;;;5.38;1.50;;;23.30;57.00;;;;;;4989403;28;20035;-81
2022/06/13 09:41:03;;;;;;;4.75;2.33;;;23.30;58.50;;;;;;4992737;28;20042;-80
2022/06/13 09:43:46;;;;;;;2.90;1.23;;;23.20;58.50;;;;;;5006676;28;20026;-80
2022/06/13 09:46:35;;;;;;;2.60;1.20;;;23.20;60.10;;;;;;5007028;28;20042;-81
2022/06/13 09:49:15;;;;;;;4.10;1.52;;;23.20;58.40;;;;;;5024063;28;20436;-80
2022/06/13 09:52:17;;;;;;;2.53;1.23;;;23.40;58.00;;;;;;5020698;28;20396;-79
2022/06/13 09:54:57;;;;;;;2.45;1.13;;;23.30;56.70;;;;;;5027435;28;20032;-80
2022/06/13 09:57:48;;;;;;;1.90;0.98;;;23.00;56.50;;;;;;5007288;28;20030;-79
2022/06/13 10:00:26;;;;;;;3.75;1.48;;;22.90;58.20;;;;;;4996209;28;20113;-78
2022/06/13 10:03:09;;;;;;;6.00;1.20;;;22.90;58.00;;;;;;5009661;28;20091;-78
2022/06/13 10:05:39;;;;;;;1.85;1.10;;;22.90;56.40;;;;;;5009784;28;20129;-79
2022/06/13 10:08:30;;;;;;;4.10;1.13;;;23.00;56.60;;;;;;5003496;28;20057;-77
2022/06/13 10:11:14;;;;;;;1.83;1.00;;;23.00;53.30;;;;;;5010400;28;20022;-80
2022/06/13 10:14:07;;;;;;;5.57;1.40;;;22.80;55.80;;;;;;5017077;28;20077;-80
2022/06/13 10:16:59;;;;;;;2.20;1.20;;;22.70;55.70;;;;;;5006469;28;20034;-78
2022/06/13 10:19:46;;;;;;;5.93;1.85;;;22.80;56.80;;;;;;4988895;28;20428;-78
2022/06/13 10:22:32;;;;;;;2.30;1.10;;;22.70;57.30;;;;;;5005088;28;20038;-81
2022/06/13 10:25:12;;;;;;;2.13;1.40;;;22.60;56.60;;;;;;4999264;28;20031;-79
2022/06/13 10:27:57;;;;;;;3.72;1.50;;;22.60;55.30;;;;;;5002895;28;20035;-79
2022/06/13 10:30:51;;;;;;;7.35;2.40;;;22.70;56.00;;;;;;5007691;28;20038;-79
2022/06/13 10:33:29;;;;;;;2.85;1.20;;;22.80;53.90;;;;;;4997900;28;20675;-79
2022/06/13 10:36:12;;;;;;;2.30;0.80;;;22.90;56.10;;;;;;5034404;28;20041;-79
2022/06/13 10:38:44;;;;;;;2.10;1.00;;;23.10;55.50;;;;;;5001164;28;20057;-79
2022/06/13 10:41:10;;;;;;;4.45;1.30;;;23.20;53.50;;;;;;5003306;28;20026;-77
2022/06/13 10:43:37;;;;;;;4.80;1.58;;;23.10;53.80;;;;;;4978266;28;20524;-77
2022/06/13 10:46:06;;;;;;;3.88;1.10;;;23.10;53.10;;;;;;4992893;28;20489;-78
2022/06/13 10:48:38;;;;;;;2.38;0.93;;;23.00;51.70;;;;;;5006140;28;20050;-78
2022/06/13 10:51:05;;;;;;;7.93;1.13;;;22.80;53.50;;;;;;5009342;28;20133;-77
2022/06/13 10:53:38;;;;;;;2.88;0.98;;;22.80;54.40;;;;;;5000655;28;20116;-78
2022/06/13 10:56:08;;;;;;;1.60;0.90;;;22.70;51.10;;;;;;5010217;28;20040;-79
2022/06/13 10:58:47;;;;;;;1.58;0.85;;;22.60;54.50;;;;;;4988800;28;20496;-79
2022/06/13 11:01:25;;;;;;;1.65;0.60;;;22.50;55.10;;;;;;5009066;28;20503;-78
2022/06/13 11:04:07;;;;;;;1.60;0.70;;;22.50;52.30;;;;;;5007204;28;20523;-78
2022/06/13 11:06:37;;;;;;;1.83;0.77;;;22.50;55.90;;;;;;5006148;28;20061;-79
2022/06/13 11:09:07;;;;;;;4.35;1.40;;;22.60;52.50;;;;;;5005809;28;20038;-78
2022/06/13 11:11:37;;;;;;;1.42;0.68;;;22.60;55.40;;;;;;5006967;28;20041;-78
2022/06/13 11:14:04;;;;;;;2.70;0.93;;;22.80;54.10;;;;;;5002969;28;20026;-79
2022/06/13 11:22:43;;;;;;;3.33;0.68;;;23.40;50.90;;;;;;4986561;28;20088;-78
2022/06/13 11:25:11;;;;;;;2.58;0.80;;;23.60;51.40;;;;;;4994294;28;20176;-78
2022/06/13 11:27:42;;;;;;;1.38;0.90;;;23.70;51.40;;;;;;5004508;28;20029;-79
2022/06/13 11:30:28;;;;;;;2.42;0.80;;;23.70;49.50;;;;;;5012817;28;20037;-79
2022/06/13 11:33:17;;;;;;;3.42;0.63;;;23.80;50.00;;;;;;5016413;28;20026;-79
2022/06/13 11:35:46;;;;;;;0.75;0.63;;;23.70;49.80;;;;;;4997849;28;20464;-79
2022/06/13 11:38:23;;;;;;;1.35;0.80;;;23.70;50.90;;;;;;5008740;28;20069;-79
2022/06/13 11:41:14;;;;;;;2.53;0.70;;;23.70;48.90;;;;;;5005951;28;20032;-78
2022/06/13 11:44:15;;;;;;;1.42;0.70;;;23.80;52.20;;;;;;5005706;28;20033;-78
2022/06/13 11:46:41;;;;;;;1.70;1.17;;;23.80;49.60;;;;;;4990936;28;20394;-78
2022/06/13 11:49:29;;;;;;;1.38;0.70;;;23.90;47.60;;;;;;5011674;28;20029;-79
2022/06/13 11:52:01;;;;;;;2.03;0.80;;;23.70;46.90;;;;;;5002956;28;20033;-80
2022/06/13 11:54:34;;;;;;;1.15;0.60;;;23.50;47.80;;;;;;4995260;28;20025;-80
2022/06/13 11:57:15;;;;;;;1.27;0.65;;;23.30;47.90;;;;;;5000329;28;20039;-80
2022/06/13 11:59:55;;;;;;;6.63;0.75;;;23.20;52.50;;;;;;4991174;28;20053;-80
2022/06/13 12:02:25;;;;;;;1.70;0.60;;;23.10;50.50;;;;;;5010974;28;20121;-79
2022/06/13 12:04:55;;;;;;;1.13;0.60;;;23.10;52.60;;;;;;5004353;28;20034;-79
2022/06/13 12:07:28;;;;;;;1.10;0.80;;;23.00;51.70;;;;;;5006676;28;20038;-79
2022/06/13 12:09:56;;;;;;;1.45;0.70;;;23.00;51.80;;;;;;5009780;28;20034;-80
2022/06/13 12:12:25;;;;;;;1.13;0.90;;;23.10;52.00;;;;;;5011468;28;20053;-78
2022/06/13 12:14:51;;;;;;;2.30;1.00;;;23.30;52.10;;;;;;5000652;28;20029;-79
2022/06/13 12:17:28;;;;;;;0.75;0.75;;;23.60;50.40;;;;;;5011686;28;20037;-79
2022/06/13 12:20:36;;;;;;;2.30;0.82;;;23.90;50.60;;;;;;5008089;28;20132;-79
2022/06/13 12:23:08;;;;;;;1.23;0.70;;;24.00;49.40;;;;;;4971052;28;20126;-78
2022/06/13 12:25:53;;;;;;;1.48;0.90;;;24.10;49.30;;;;;;5004113;28;20038;-80
2022/06/13 12:28:34;;;;;;;2.20;0.75;;;24.00;49.40;;;;;;4999238;28;20034;-79
2022/06/13 12:31:11;;;;;;;2.88;0.95;;;23.80;50.20;;;;;;5011360;28;20413;-79
2022/06/13 12:33:54;;;;;;;1.63;0.70;;;23.60;50.00;;;;;;4979837;28;20026;-78
2022/06/13 12:36:34;;;;;;;7.03;0.82;;;23.30;48.90;;;;;;4999019;28;20034;-79
2022/06/13 12:39:00;;;;;;;4.72;0.70;;;23.10;52.20;;;;;;5011849;28;20065;-79
2022/06/13 12:41:42;;;;;;;1.95;0.70;;;23.20;52.30;;;;;;5015785;28;20026;-80
2022/06/13 12:44:35;;;;;;;0.95;0.50;;;23.60;52.60;;;;;;5003883;28;20041;-79
2022/06/13 12:47:28;;;;;;;2.80;0.80;;;23.90;47.60;;;;;;5004442;28;20045;-79
2022/06/13 12:50:13;;;;;;;1.38;0.60;;;23.90;49.90;;;;;;5005492;28;20105;-78
2022/06/13 12:53:15;;;;;;;2.33;0.60;;;23.90;50.70;;;;;;5009091;28;20076;-79
2022/06/13 12:55:59;;;;;;;3.90;2.25;;;23.80;51.30;;;;;;4991517;28;20045;-79
2022/06/13 12:58:51;;;;;;;2.35;0.68;;;23.70;50.90;;;;;;4981929;28;20377;-79
2022/06/13 13:01:19;;;;;;;2.22;1.15;;;24.00;51.20;;;;;;5012777;28;20040;-80
2022/06/13 13:04:23;;;;;;;3.47;0.90;;;24.40;50.60;;;;;;5002691;28;20037;-79
2022/06/13 13:07:11;;;;;;;2.25;0.93;;;24.90;46.30;;;;;;5008895;28;20035;-80
2022/06/13 13:10:01;;;;;;;5.22;2.45;;;25.00;48.20;;;;;;5000553;28;20027;-79
2022/06/13 13:12:32;;;;;;;1.25;0.85;;;24.90;47.50;;;;;;5005651;28;20034;-79
2022/06/13 13:15:11;;;;;;;3.10;0.88;;;24.60;47.20;;;;;;5001426;28;20026;-79
2022/06/13 13:17:49;;;;;;;2.15;0.88;;;24.20;46.60;;;;;;4996117;28;20072;-79
2022/06/13 13:20:52;;;;;;;2.78;1.13;;;24.10;50.50;;;;;;5008600;28;20031;-81
2022/06/13 13:23:33;;;;;;;3.53;0.98;;;24.40;50.50;;;;;;4994604;28;20396;-78
2022/06/13 13:26:32;;;;;;;2.55;1.10;;;24.60;50.00;;;;;;5019973;28;20025;-79
2022/06/13 13:29:01;;;;;;;2.53;0.98;;;24.90;48.40;;;;;;4992680;28;20106;-79
2022/06/13 13:31:37;;;;;;;3.15;0.93;;;25.10;49.90;;;;;;5009483;28;20053;-79
2022/06/13 13:34:42;;;;;;;1.95;1.00;;;25.20;47.10;;;;;;5007842;28;20084;-79
2022/06/13 13:37:19;;;;;;;5.00;1.05;;;24.90;48.80;;;;;;5009806;28;20048;-78
2022/06/13 13:40:00;;;;;;;0.70;0.70;;;24.90;51.10;;;;;;5011177;28;20034;-79
2022/06/13 13:43:01;;;;;;;1.92;1.35;;;24.90;50.10;;;;;;5027744;28;20034;-78
2022/06/13 13:46:12;;;;;;;1.80;0.82;;;24.90;49.10;;;;;;5010778;28;20073;-78
2022/06/13 13:49:03;;;;;;;1.80;0.90;;;25.00;48.40;;;;;;5023677;28;20506;-77